Ship Status Report: callsign MARE

sailwx.info

Track history (hours):
 
Tides and Currents Weather Stations Pressure Air Temp Water Temp Dewpoint Dewpoint Depression Visibility Wind Speed Wind Dir Waves Ship Positions

Callsign MARE (name unknown)

Last reported at 2015-Jul-22 00:31 UTC. Time now 2015-Jul-29 04:56 UTC.
Position N 41°29' W 071°19'.

Type: Pleasure craft. MMSI: 338135682.

Date/timePositionNaut miles runAvg speedWind from/ knotsBaromVisibWave heightAir tempDewpointWater temp
2015-Jul-22 00:31N 41°29' W 071°19'0 0.0
2015-Jul-21 23:28N 41°29' W 071°19'0 0.0
2015-Jul-21 22:25N 41°29' W 071°19'0 0.0
2015-Jul-21 13:28N 41°29' W 071°19'0 0.0
2015-Jul-21 09:31N 41°29' W 071°19'0 0.0
2015-Jul-21 08:31N 41°29' W 071°19'0 0.0
2015-Jul-21 07:31N 41°29' W 071°19'0 0.0
2015-Jul-21 06:31N 41°29' W 071°19'0 0.0
2015-Jul-21 05:28N 41°29' W 071°19'0 0.0
2015-Jul-21 04:31N 41°29' W 071°19'13 1.9
2015-Jul-20 21:33N 41°18' W 071°29'8 8.2
2015-Jul-20 20:32N 41°10' W 071°33'0 0.0
2015-Jul-20 19:32N 41°10' W 071°33'0 0.0
2015-Jul-20 18:32N 41°10' W 071°33'0 0.0
2015-Jul-20 17:29N 41°10' W 071°33'21 4.3
2015-Jul-20 12:29N 41°29' W 071°19'  
2015-Jul-13 09:20N 41°29' W 071°19'  
Track history (hours):
 
Tides and Currents Weather Stations Pressure Air Temp Water Temp Dewpoint Dewpoint Depression Visibility Wind Speed Wind Dir Waves Ship Positions

Callsign MARE (name unknown)

Last reported at 2015-Jul-22 00:31 UTC. Time now 2015-Jul-29 04:56 UTC.
Position N 41°29' W 071°19'.

Type: Pleasure craft. MMSI: 338135682.

Date/timePositionNaut miles runAvg speedWind from/ knotsBaromVisibWave heightAir tempDewpointWater temp
2015-Jul-22 00:31N 41°29' W 071°19'0 0.0
2015-Jul-21 23:28N 41°29' W 071°19'0 0.0
2015-Jul-21 22:25N 41°29' W 071°19'0 0.0
2015-Jul-21 13:28N 41°29' W 071°19'0 0.0
2015-Jul-21 09:31N 41°29' W 071°19'0 0.0
2015-Jul-21 08:31N 41°29' W 071°19'0 0.0
2015-Jul-21 07:31N 41°29' W 071°19'0 0.0
2015-Jul-21 06:31N 41°29' W 071°19'0 0.0
2015-Jul-21 05:28N 41°29' W 071°19'0 0.0
2015-Jul-21 04:31N 41°29' W 071°19'13 1.9
2015-Jul-20 21:33N 41°18' W 071°29'8 8.2
2015-Jul-20 20:32N 41°10' W 071°33'0 0.0
2015-Jul-20 19:32N 41°10' W 071°33'0 0.0
2015-Jul-20 18:32N 41°10' W 071°33'0 0.0
2015-Jul-20 17:29N 41°10' W 071°33'21 4.3
2015-Jul-20 12:29N 41°29' W 071°19'  
2015-Jul-13 09:20N 41°29' W 071°19'  

Dump ship's entire track history